createdAt,value
2019-04-23T11:39:42.994Z,3706.88
2019-04-23T11:40:37.825Z,3476.25
2019-04-23T11:41:45.371Z,3414.38
2019-04-23T11:42:47.180Z,3515.63
2019-04-23T11:43:32.560Z,3616.88
2019-04-23T11:51:05.074Z,3661.88
2019-04-23T11:52:41.459Z,3358.13
2019-04-23T11:53:42.560Z,3465.00
2019-04-23T11:54:36.027Z,3616.88
2019-04-23T11:57:52.592Z,3988.13
2019-04-23T12:00:05.303Z,3858.75
2019-04-23T12:01:00.903Z,3886.88
2019-04-23T12:01:47.787Z,3813.75
2019-04-23T12:03:45.401Z,3639.38
2019-04-23T12:04:45.303Z,3701.25
2019-04-23T12:06:09.530Z,3751.88
2019-04-23T12:06:44.476Z,3735.00
2019-04-23T12:07:41.228Z,3780.00
2019-04-23T12:08:56.591Z,3886.88
2019-04-23T12:10:47.832Z,3864.38
2019-04-23T12:13:44.111Z,3825.00
2019-04-23T12:14:51.674Z,3802.50
2019-04-23T12:15:39.556Z,3622.50
2019-04-23T12:16:55.593Z,3628.13
2019-04-23T12:19:33.404Z,3723.75
2019-04-23T12:20:49.520Z,3684.38
2019-04-23T12:21:53.127Z,3403.13
2019-04-23T12:22:51.292Z,3352.50
2019-04-23T12:25:45.829Z,3223.13
2019-04-23T12:26:49.316Z,3240.00
2019-04-23T12:28:01.741Z,3200.63
2019-04-23T12:28:56.816Z,3279.38
2019-04-23T12:30:49.111Z,3256.88
2019-04-23T12:31:56.997Z,3369.38
2019-04-23T12:32:53.694Z,3341.25
2019-04-23T12:35:01.301Z,3453.75
2019-04-23T12:35:40.467Z,3397.50
2019-04-23T12:36:46.899Z,3420.00
2019-04-23T12:38:45.314Z,3341.25
2019-04-23T12:39:56.774Z,3290.63
2019-04-23T12:40:45.919Z,3256.88
2019-04-23T12:41:54.671Z,3172.50
2019-04-23T12:42:55.204Z,3268.13
2019-04-23T12:43:53.253Z,3240.00
2019-04-23T12:44:56.723Z,3268.13
2019-04-23T12:45:43.646Z,3217.50
2019-04-23T12:47:09.063Z,3189.38
2019-04-23T12:49:00.557Z,3076.88
2019-04-23T12:50:44.784Z,2874.38
2019-04-23T12:51:56.093Z,3121.88
2019-04-23T12:53:50.711Z,2576.25
2019-04-23T12:54:58.913Z,2311.88
2019-04-23T12:55:43.780Z,2435.63
2019-04-23T12:57:53.507Z,1935.00
2019-04-23T12:58:45.238Z,1873.13
2019-04-23T12:59:53.087Z,1732.50
2019-04-23T13:00:45.808Z,1575.00
2019-04-23T13:01:55.922Z,1659.38
2019-04-23T13:02:48.512Z,1856.25
2019-04-23T13:03:56.280Z,1918.13
2019-04-23T13:04:51.732Z,2002.50
2019-04-23T13:05:42.261Z,2013.75
2019-04-23T13:06:50.869Z,2109.38
2019-04-23T13:07:52.046Z,2058.75
2019-04-23T13:08:53.721Z,2120.63
2019-04-23T13:09:54.060Z,2176.88
2019-04-23T13:11:50.014Z,2030.63
2019-04-23T13:13:21.147Z,1833.75
2019-04-23T13:13:53.560Z,1563.75
2019-04-23T13:16:02.548Z,1395.00
2019-04-23T13:17:01.949Z,1591.88
2019-04-23T13:18:52.450Z,2047.50
2019-04-23T13:20:51.368Z,2103.75
2019-04-23T13:23:49.445Z,1485.00
2019-04-23T13:24:56.007Z,1321.88
2019-04-23T13:25:54.129Z,1271.25
2019-04-23T13:26:57.284Z,1254.38
2019-04-23T13:28:51.011Z,1231.88
2019-04-23T13:29:56.789Z,1226.25
2019-04-23T13:31:17.833Z,1226.25
2019-04-23T13:31:50.238Z,1220.63
2019-04-23T13:32:59.073Z,1215.00
2019-04-23T13:33:52.143Z,1209.38
2019-04-23T13:36:01.706Z,1198.13
2019-04-23T13:37:05.165Z,1186.88
2019-04-23T13:38:34.876Z,1186.88
2019-04-23T13:38:55.002Z,1175.63
2019-04-23T13:40:24.439Z,1164.38
2019-04-23T13:41:01.306Z,1164.38
2019-04-23T13:41:52.512Z,1147.50
2019-04-23T13:43:01.519Z,1136.25
2019-04-23T13:43:47.855Z,1130.63
2019-04-23T13:45:07.339Z,1119.38
2019-04-23T13:47:02.964Z,1096.88
2019-04-23T13:48:06.582Z,1085.63
2019-04-23T13:49:02.752Z,1080.00
2019-04-23T13:50:07.447Z,1068.75
2019-04-23T13:52:12.795Z,1057.50
2019-04-23T13:53:58.861Z,1051.88
2019-04-23T13:55:11.147Z,1051.88
2019-04-23T13:55:47.084Z,1046.25
2019-04-23T13:58:10.992Z,1040.63
2019-04-23T13:59:09.531Z,1035.00
2019-04-23T14:00:09.012Z,1018.13
2019-04-23T14:01:07.462Z,1006.88
2019-04-23T14:02:07.730Z,995.63
2019-04-23T14:03:06.160Z,984.38
2019-04-23T14:04:27.744Z,967.50
2019-04-23T14:06:09.064Z,945.00
2019-04-23T14:08:12.178Z,911.25
2019-04-23T14:08:59.585Z,905.63
2019-04-23T14:10:18.229Z,900.00
2019-04-23T14:11:05.553Z,900.00
2019-04-23T14:12:01.651Z,888.75
2019-04-23T14:13:30.210Z,883.13
2019-04-23T14:14:25.483Z,877.50
2019-04-23T14:16:03.895Z,871.88
2019-04-23T14:17:18.663Z,860.63
2019-04-23T14:18:29.462Z,849.38
2019-04-23T14:19:12.972Z,838.13
2019-04-23T14:20:07.198Z,838.13
2019-04-23T14:21:14.170Z,838.13
2019-04-23T14:25:08.066Z,860.63
2019-04-23T14:27:08.814Z,871.88
2019-04-23T14:29:07.316Z,883.13
2019-04-23T14:30:13.790Z,888.75
2019-04-23T14:32:08.778Z,900.00
2019-04-23T14:33:15.301Z,905.63
2019-04-23T14:34:04.839Z,900.00
2019-04-23T14:35:25.444Z,905.63
2019-04-23T14:36:12.540Z,905.63
2019-04-23T14:37:13.279Z,922.50
2019-04-23T14:39:10.035Z,900.00
2019-04-23T14:40:13.351Z,900.00
2019-04-23T14:42:33.801Z,883.13
2019-04-23T14:44:12.985Z,894.38
2019-04-23T14:45:25.013Z,894.38
2019-04-23T14:47:22.151Z,928.13
2019-04-23T14:48:19.723Z,933.75
2019-04-23T14:49:30.078Z,939.38
2019-04-23T14:50:29.426Z,950.63
2019-04-23T14:52:16.439Z,945.00
2019-04-23T14:53:21.451Z,945.00
2019-04-23T14:54:12.857Z,939.38
2019-04-23T14:55:40.540Z,939.38
2019-04-23T14:56:17.059Z,939.38
2019-04-23T14:57:23.204Z,933.75
2019-04-23T14:58:23.802Z,928.13
2019-04-23T14:59:06.729Z,916.88
2019-04-23T15:00:23.485Z,900.00
2019-04-23T15:03:20.400Z,832.50
2019-04-23T15:04:11.035Z,821.25
2019-04-23T15:05:21.703Z,804.38
2019-04-23T15:07:22.909Z,781.88
2019-04-23T15:08:21.130Z,770.63
2019-04-23T15:09:22.956Z,753.75
2019-04-23T15:10:18.463Z,714.38
2019-04-23T15:13:06.889Z,669.38
2019-04-23T15:13:21.254Z,652.50
2019-04-23T15:14:17.590Z,646.88
2019-04-23T15:16:39.869Z,635.63
2019-04-23T15:18:20.256Z,630.00
2019-04-23T15:19:34.592Z,641.25
2019-04-23T15:20:17.195Z,590.63
2019-04-23T15:21:37.638Z,596.25
2019-04-23T15:23:33.301Z,540.00
2019-04-23T15:25:26.399Z,506.25
2019-04-23T15:28:07.800Z,466.88
2019-04-23T15:29:04.487Z,455.63
2019-04-23T15:30:09.064Z,450.00
2019-04-23T15:31:28.468Z,438.75
2019-04-23T15:32:23.854Z,433.13
2019-04-23T15:33:41.276Z,427.50
2019-04-23T15:35:37.105Z,410.63
2019-04-23T15:36:58.219Z,399.38
2019-04-23T15:37:33.232Z,388.13
2019-04-23T15:38:34.004Z,382.50
2019-04-23T15:39:21.116Z,371.25
2019-04-23T15:42:26.589Z,354.38
2019-04-23T15:45:24.197Z,343.13
2019-04-23T15:46:30.661Z,343.13
2019-04-23T15:49:01.507Z,337.50
2019-04-23T15:49:23.471Z,337.50
2019-04-23T15:50:29.732Z,343.13
2019-04-23T15:52:35.264Z,337.50
2019-04-23T15:53:11.576Z,337.50
2019-04-23T15:55:22.164Z,331.88
2019-04-23T15:57:41.799Z,320.63
2019-04-23T15:58:35.751Z,315.00
2019-04-23T16:00:18.109Z,315.00
2019-04-23T16:01:24.081Z,315.00
2019-04-23T16:01:54.320Z,315.00
2019-04-23T16:02:54.540Z,309.38
2019-04-23T16:03:59.328Z,309.38
2019-04-23T16:04:58.071Z,315.00
2019-04-23T16:05:55.336Z,315.00
2019-04-23T16:06:55.975Z,315.00
2019-04-23T16:08:23.909Z,315.00
2019-04-23T16:09:17.814Z,320.63
2019-04-23T16:10:28.817Z,326.25
2019-04-23T16:12:25.539Z,326.25
2019-04-23T16:13:31.069Z,326.25
2019-04-23T16:14:32.495Z,331.88
2019-04-23T16:15:23.165Z,331.88
2019-04-23T16:16:29.980Z,331.88
2019-04-23T16:17:29.081Z,337.50
2019-04-23T16:18:42.151Z,331.88
2019-04-23T16:19:25.503Z,326.25
2019-04-23T16:20:31.465Z,326.25
2019-04-23T16:21:35.856Z,326.25
2019-04-23T16:22:24.890Z,320.63
2019-04-23T16:23:28.013Z,320.63
2019-04-23T16:24:21.918Z,315.00
2019-04-23T16:25:20.398Z,315.00
2019-04-23T16:26:53.234Z,315.00
2019-04-23T16:27:19.628Z,315.00
2019-04-23T16:28:50.456Z,315.00
2019-04-23T16:29:35.884Z,315.00
2019-04-23T16:30:31.312Z,315.00
2019-04-23T16:32:56.112Z,315.00
2019-04-23T16:33:20.100Z,315.00
2019-04-23T16:34:33.742Z,309.38
2019-04-23T16:37:29.253Z,303.75
2019-04-23T16:38:39.922Z,303.75
2019-04-23T16:39:31.682Z,303.75
2019-04-23T16:40:33.172Z,303.75
2019-04-23T16:41:42.199Z,303.75
2019-04-23T16:42:38.238Z,303.75
2019-04-23T16:43:30.651Z,298.13
2019-04-23T16:44:39.294Z,281.25
2019-04-23T16:46:54.115Z,270.00
2019-04-23T16:47:30.647Z,264.38
2019-04-23T16:49:44.593Z,253.13
2019-04-23T16:50:41.758Z,247.50
2019-04-23T16:52:32.846Z,236.25
2019-04-23T16:54:45.327Z,225.00
2019-04-23T16:55:38.357Z,219.38
2019-04-23T16:56:55.398Z,213.75
2019-04-23T16:59:43.349Z,202.50
2019-04-23T17:00:43.985Z,202.50
2019-04-23T17:01:37.298Z,196.88
2019-04-23T17:02:34.036Z,191.25
2019-04-23T17:04:39.005Z,185.63
2019-04-23T17:06:57.855Z,174.38
2019-04-23T17:07:38.134Z,168.75
2019-04-23T17:08:53.619Z,168.75
2019-04-23T17:10:38.404Z,157.50
2019-04-23T17:11:34.320Z,151.88
2019-04-23T17:12:38.726Z,151.88
2019-04-23T17:13:55.422Z,146.25
2019-04-23T17:14:32.997Z,140.63
2019-04-23T17:15:48.406Z,140.63
2019-04-23T17:16:39.920Z,135.00
2019-04-23T17:17:30.852Z,129.38
2019-04-23T17:19:40.609Z,123.75
2019-04-23T17:20:41.295Z,118.13
2019-04-23T17:21:53.363Z,118.13
2019-04-23T17:22:38.758Z,112.50
2019-04-23T17:25:01.955Z,112.50
2019-04-23T17:25:41.894Z,106.88
2019-04-23T17:26:35.888Z,106.88
2019-04-23T17:27:42.451Z,106.88
2019-04-23T17:29:02.673Z,106.88
2019-04-23T17:30:41.757Z,101.25
2019-04-23T17:32:36.197Z,95.63
2019-04-23T17:33:43.557Z,95.63
2019-04-23T17:35:45.036Z,90.00
2019-04-23T17:36:37.425Z,90.00
2019-04-23T17:37:38.558Z,84.38
2019-04-23T17:38:51.426Z,84.38
2019-04-23T17:39:43.869Z,84.38
2019-04-23T17:40:39.375Z,78.75
2019-04-23T17:41:57.444Z,78.75
2019-04-23T17:42:37.369Z,78.75
2019-04-23T17:43:54.741Z,73.13
2019-04-23T17:45:40.777Z,67.50
2019-04-23T17:46:43.139Z,67.50
2019-04-23T17:47:47.920Z,67.50
2019-04-23T17:48:34.998Z,61.88
2019-04-23T17:49:51.316Z,61.88
2019-04-23T17:50:44.087Z,61.88
2019-04-23T17:51:40.388Z,56.25
2019-04-23T17:52:52.628Z,56.25
2019-04-23T17:53:49.873Z,56.25
2019-04-23T17:54:53.489Z,50.63
2019-04-23T17:55:54.888Z,50.63
2019-04-23T17:56:54.163Z,50.63
2019-04-23T17:57:45.973Z,45.00
2019-04-23T17:58:58.615Z,45.00
2019-04-23T18:00:00.311Z,45.00
2019-04-23T18:00:51.615Z,39.38
2019-04-23T18:02:00.167Z,39.38
2019-04-23T18:02:55.168Z,39.38
2019-04-23T18:03:55.540Z,33.75
2019-04-23T18:06:04.071Z,33.75
2019-04-23T18:07:54.088Z,28.13
2019-04-23T18:09:57.031Z,28.13
2019-04-23T18:11:01.549Z,22.50
2019-04-23T18:12:51.503Z,22.50
2019-04-23T18:13:50.571Z,16.88
2019-04-23T18:14:59.067Z,16.88
2019-04-23T18:15:53.731Z,16.88
2019-04-23T18:17:24.205Z,16.88
2019-04-23T18:17:57.097Z,16.88
2019-04-23T18:19:06.401Z,11.25
2019-04-23T18:19:53.579Z,11.25
2019-04-23T18:20:57.953Z,11.25
2019-04-23T18:21:58.985Z,11.25
2019-04-23T18:22:54.306Z,11.25
2019-04-23T18:23:55.336Z,5.63
2019-04-23T18:24:50.544Z,5.63
2019-04-23T18:25:56.297Z,5.63
2019-04-23T18:28:58.754Z,5.63
2019-04-23T18:32:03.718Z,0.00
2019-04-23T18:33:22.014Z,0.00
2019-04-23T18:34:05.391Z,0.00
2019-04-23T18:35:13.834Z,0.00
2019-04-23T18:35:44.690Z,0.00
2019-04-23T18:36:52.197Z,0.00
2019-04-23T18:37:49.231Z,0.00
2019-04-23T18:38:53.234Z,0.00
2019-04-23T18:39:49.918Z,0.00
2019-04-23T18:41:02.028Z,0.00
2019-04-23T18:42:04.086Z,0.00
2019-04-23T18:42:53.829Z,0.00
2019-04-23T18:43:50.961Z,0.00
2019-04-23T18:44:58.522Z,0.00
2019-04-23T18:46:49.127Z,0.00
2019-04-23T18:47:50.368Z,0.00
2019-04-23T18:49:55.824Z,0.00
2019-04-23T18:51:00.179Z,0.00
2019-04-23T18:52:14.555Z,0.00
2019-04-23T18:52:57.864Z,0.00
2019-04-23T18:54:53.911Z,0.00
2019-04-23T18:56:06.677Z,0.00
2019-04-23T18:58:04.031Z,0.00
2019-04-23T18:59:00.891Z,0.00
2019-04-23T18:59:57.044Z,0.00
2019-04-23T19:02:00.676Z,0.00
2019-04-23T19:04:07.163Z,0.00
2019-04-23T19:05:07.221Z,0.00
2019-04-23T19:06:07.157Z,0.00
2019-04-23T19:06:41.289Z,0.00
2019-04-23T19:08:07.555Z,0.00
2019-04-23T19:09:04.412Z,0.00
2019-04-23T19:10:15.793Z,0.00
2019-04-23T19:10:58.013Z,0.00
2019-04-23T19:12:24.813Z,0.00
2019-04-23T19:13:57.376Z,0.00
2019-04-23T19:15:05.633Z,0.00
2019-04-23T19:15:53.593Z,0.00
2019-04-23T19:18:16.930Z,0.00
2019-04-23T19:20:00.991Z,0.00
2019-04-23T19:23:08.243Z,0.00
2019-04-23T19:23:54.949Z,0.00
2019-04-23T19:25:01.715Z,0.00
2019-04-23T19:26:40.537Z,0.00
2019-04-23T19:28:12.101Z,0.00
2019-04-23T19:29:07.072Z,0.00
2019-04-23T19:30:31.308Z,0.00
2019-04-23T19:31:01.816Z,0.00
2019-04-23T19:33:05.840Z,0.00
2019-04-23T19:34:58.955Z,0.00
2019-04-23T19:36:19.041Z,0.00
2019-04-23T19:38:10.576Z,0.00
2019-04-23T19:39:14.838Z,0.00
2019-04-23T19:40:04.781Z,0.00
2019-04-23T19:41:02.203Z,0.00
2019-04-23T19:43:00.928Z,0.00
2019-04-23T19:45:07.775Z,0.00
2019-04-23T19:46:16.190Z,0.00
2019-04-23T19:48:13.443Z,0.00
2019-04-23T19:50:03.637Z,0.00
2019-04-23T19:51:11.422Z,0.00
2019-04-23T19:54:20.150Z,0.00
2019-04-23T19:57:17.849Z,0.00
2019-04-23T19:58:16.126Z,0.00
2019-04-23T19:59:01.920Z,0.00
2019-04-23T20:00:09.718Z,0.00
2019-04-23T20:03:17.170Z,0.00
2019-04-23T20:04:04.282Z,0.00
2019-04-23T20:05:09.227Z,0.00
2019-04-23T20:06:07.913Z,0.00
2019-04-23T20:08:16.349Z,0.00
2019-04-23T20:10:03.962Z,0.00
2019-04-23T20:12:13.995Z,0.00
2019-04-23T20:13:07.880Z,0.00
2019-04-23T20:14:29.596Z,0.00
2019-04-23T20:15:00.234Z,0.00
2019-04-23T20:16:26.016Z,0.00
2019-04-23T20:17:32.053Z,0.00
2019-04-23T20:18:09.043Z,0.00
2019-04-23T20:19:05.141Z,0.00
2019-04-23T20:20:08.965Z,0.00
2019-04-23T20:21:03.793Z,0.00
2019-04-23T20:23:11.895Z,0.00
2019-04-23T20:24:20.279Z,0.00
2019-04-23T20:25:44.193Z,0.00
2019-04-23T20:27:26.422Z,0.00
2019-04-23T20:28:33.819Z,0.00
2019-04-23T20:35:16.621Z,0.00
2019-04-23T20:36:25.803Z,0.00
2019-04-23T20:37:12.650Z,0.00
2019-04-23T20:40:31.146Z,0.00
2019-04-23T20:41:28.290Z,0.00
2019-04-23T20:42:18.285Z,0.00
2019-04-23T20:43:14.959Z,0.00
2019-04-23T20:44:25.658Z,0.00
2019-04-23T20:45:42.347Z,0.00
2019-04-23T20:46:14.800Z,0.00
2019-04-23T20:48:27.344Z,0.00
2019-04-23T20:49:23.370Z,0.00
2019-04-23T20:50:10.456Z,0.00
2019-04-23T20:51:14.329Z,0.00
2019-04-23T20:53:13.670Z,0.00
2019-04-23T20:54:27.034Z,0.00
2019-04-23T20:55:25.951Z,0.00
2019-04-23T20:56:27.158Z,0.00
2019-04-23T20:57:30.522Z,0.00
2019-04-23T20:58:15.208Z,0.00
2019-04-23T20:59:30.854Z,0.00
2019-04-23T21:01:21.868Z,0.00
2019-04-23T21:02:30.007Z,0.00
2019-04-23T21:04:17.757Z,0.00
2019-04-23T21:06:28.381Z,0.00
2019-04-23T21:07:28.317Z,0.00
2019-04-23T21:08:24.644Z,0.00
2019-04-23T21:09:33.477Z,0.00
2019-04-23T21:10:34.820Z,0.00
2019-04-23T21:11:24.998Z,0.00
2019-04-23T21:12:43.126Z,0.00
2019-04-23T21:14:40.387Z,0.00
2019-04-23T21:16:25.093Z,0.00
2019-04-23T21:17:29.248Z,0.00
2019-04-23T21:19:35.664Z,0.00
2019-04-23T21:20:33.581Z,0.00
2019-04-23T21:21:27.127Z,0.00
2019-04-23T21:22:30.751Z,0.00
2019-04-23T21:23:30.265Z,0.00
2019-04-23T21:24:27.379Z,0.00
2019-04-23T21:26:26.335Z,0.00
2019-04-23T21:27:41.012Z,0.00
2019-04-23T21:29:25.876Z,0.00
2019-04-23T21:30:43.146Z,0.00
2019-04-23T21:31:42.798Z,0.00
2019-04-23T21:32:35.420Z,0.00
2019-04-23T21:33:25.962Z,0.00
2019-04-23T21:34:24.873Z,0.00
2019-04-23T21:35:46.340Z,0.00
2019-04-23T21:37:37.384Z,0.00
2019-04-23T21:38:41.123Z,0.00
2019-04-23T21:39:38.969Z,0.00
2019-04-23T21:41:39.258Z,0.00
2019-04-23T21:42:39.057Z,0.00
2019-04-23T21:43:35.875Z,0.00
2019-04-23T21:44:40.799Z,0.00
2019-04-23T21:45:35.096Z,0.00
2019-04-23T21:46:41.695Z,0.00
2019-04-23T21:47:42.635Z,0.00
2019-04-23T21:48:48.759Z,0.00
2019-04-23T21:49:38.960Z,0.00
2019-04-23T21:50:39.480Z,0.00
2019-04-23T21:52:48.465Z,0.00
2019-04-23T21:53:32.873Z,0.00
2019-04-23T21:54:29.280Z,0.00
2019-04-23T21:55:39.023Z,0.00
2019-04-23T21:56:33.187Z,0.00
2019-04-23T21:57:41.834Z,0.00
2019-04-23T21:58:47.610Z,0.00
2019-04-23T21:59:32.402Z,0.00
2019-04-23T22:00:36.509Z,0.00
2019-04-23T22:01:38.283Z,0.00
2019-04-23T22:02:36.093Z,0.00
2019-04-23T22:03:43.575Z,0.00
2019-04-23T22:06:36.921Z,0.00
2019-04-23T22:07:49.457Z,0.00
2019-04-23T22:08:41.335Z,0.00
2019-04-23T22:09:37.854Z,0.00
2019-04-23T22:10:32.989Z,0.00
2019-04-23T22:12:33.467Z,0.00
2019-04-23T22:13:53.858Z,0.00
2019-04-23T22:15:47.828Z,0.00
2019-04-23T22:16:46.255Z,0.00
2019-04-23T22:18:46.079Z,0.00
2019-04-23T22:20:43.704Z,0.00
2019-04-23T22:21:47.290Z,0.00
2019-04-23T22:22:49.593Z,0.00
2019-04-23T22:23:52.881Z,0.00
2019-04-23T22:24:32.165Z,0.00
2019-04-23T22:25:50.178Z,0.00
2019-04-23T22:26:53.407Z,0.00
2019-04-23T22:27:41.242Z,0.00
2019-04-23T22:28:50.707Z,0.00
2019-04-23T22:30:50.548Z,0.00
2019-04-23T22:31:41.799Z,0.00
2019-04-23T22:32:48.724Z,0.00
2019-04-23T22:33:47.717Z,0.00
2019-04-23T22:34:42.851Z,0.00
2019-04-23T22:35:51.444Z,0.00
2019-04-23T22:36:42.500Z,0.00
2019-04-23T22:37:42.440Z,0.00
2019-04-23T22:38:45.283Z,0.00
2019-04-23T22:39:39.867Z,0.00
2019-04-23T22:40:41.381Z,0.00
2019-04-23T22:41:58.163Z,0.00
2019-04-23T22:43:55.681Z,0.00
2019-04-23T22:44:51.350Z,0.00
2019-04-23T22:45:59.916Z,0.00
2019-04-23T22:46:52.404Z,0.00
2019-04-23T22:47:47.936Z,0.00
2019-04-23T22:48:47.621Z,0.00
2019-04-23T22:49:44.103Z,0.00
2019-04-23T22:50:47.404Z,0.00
2019-04-23T22:51:59.178Z,0.00
2019-04-23T22:52:48.807Z,0.00
2019-04-23T22:53:53.801Z,0.00
2019-04-23T22:54:51.302Z,0.00
2019-04-23T22:55:49.703Z,0.00
2019-04-23T22:56:53.649Z,0.00
2019-04-23T22:57:58.715Z,0.00
2019-04-23T22:58:54.380Z,0.00
2019-04-23T23:00:00.718Z,0.00
2019-04-23T23:00:46.738Z,0.00
2019-04-23T23:02:53.512Z,0.00
2019-04-23T23:03:54.503Z,0.00
2019-04-23T23:04:52.516Z,0.00
2019-04-23T23:06:06.419Z,0.00
2019-04-23T23:06:59.040Z,0.00
2019-04-23T23:07:55.751Z,0.00
2019-04-23T23:09:10.703Z,0.00
2019-04-23T23:09:56.438Z,0.00
2019-04-23T23:10:52.207Z,0.00
2019-04-23T23:13:01.777Z,0.00
2019-04-23T23:14:01.141Z,0.00
2019-04-23T23:14:57.448Z,0.00
2019-04-23T23:18:02.111Z,0.00
2019-04-23T23:18:59.805Z,0.00
2019-04-23T23:20:03.624Z,0.00
2019-04-23T23:20:55.347Z,0.00
2019-04-23T23:21:59.497Z,0.00
2019-04-23T23:22:57.283Z,0.00
2019-04-23T23:23:49.746Z,0.00
2019-04-23T23:25:02.645Z,0.00
2019-04-23T23:25:50.915Z,0.00
2019-04-23T23:26:54.178Z,0.00
2019-04-23T23:27:57.724Z,0.00
2019-04-23T23:28:48.857Z,0.00
2019-04-23T23:29:58.159Z,0.00
2019-04-23T23:31:03.154Z,0.00
2019-04-23T23:32:11.172Z,0.00
2019-04-23T23:32:58.800Z,0.00
2019-04-23T23:33:55.752Z,0.00
2019-04-23T23:35:12.921Z,0.00
2019-04-23T23:35:57.255Z,0.00
2019-04-23T23:37:02.173Z,0.00
2019-04-23T23:38:08.366Z,0.00
2019-04-23T23:39:59.919Z,0.00
2019-04-23T23:41:03.643Z,0.00
2019-04-23T23:41:57.224Z,0.00
2019-04-23T23:43:03.674Z,0.00
2019-04-23T23:44:16.627Z,0.00
2019-04-23T23:46:06.947Z,0.00
2019-04-23T23:47:03.204Z,0.00
2019-04-23T23:50:00.989Z,0.00
2019-04-23T23:51:00.726Z,0.00
2019-04-23T23:52:04.778Z,0.00
2019-04-23T23:53:02.719Z,0.00
2019-04-23T23:55:03.994Z,0.00
2019-04-23T23:55:07.851Z,0.00
2019-04-23T23:56:07.377Z,0.00
2019-04-23T23:57:56.795Z,0.00
2019-04-23T23:59:09.195Z,0.00
